sensor_id;sensor_type;location;lat;lon;timestamp;P1;durP1;ratioP1;P2;durP2;ratioP2
36931;SDS011;22847;42.654;23.370;2022-07-01T00:00:29;6.57;;;4.00;;
36931;SDS011;22847;42.654;23.370;2022-07-01T00:02:54;8.10;;;3.90;;
36931;SDS011;22847;42.654;23.370;2022-07-01T00:05:20;9.27;;;4.05;;
36931;SDS011;22847;42.654;23.370;2022-07-01T00:07:46;7.55;;;3.90;;
36931;SDS011;22847;42.654;23.370;2022-07-01T00:10:12;12.15;;;3.67;;
36931;SDS011;22847;42.654;23.370;2022-07-01T00:12:37;11.40;;;3.95;;
36931;SDS011;22847;42.654;23.370;2022-07-01T00:15:03;7.90;;;3.90;;
36931;SDS011;22847;42.654;23.370;2022-07-01T00:17:29;8.65;;;3.50;;
36931;SDS011;22847;42.654;23.370;2022-07-01T00:19:54;7.05;;;3.75;;
36931;SDS011;22847;42.654;23.370;2022-07-01T00:22:20;8.38;;;3.95;;
36931;SDS011;22847;42.654;23.370;2022-07-01T00:24:45;6.45;;;3.58;;
36931;SDS011;22847;42.654;23.370;2022-07-01T00:27:13;14.35;;;4.00;;
36931;SDS011;22847;42.654;23.370;2022-07-01T00:29:40;5.90;;;3.60;;
36931;SDS011;22847;42.654;23.370;2022-07-01T00:32:05;5.15;;;3.50;;
36931;SDS011;22847;42.654;23.370;2022-07-01T00:34:31;9.18;;;4.30;;
36931;SDS011;22847;42.654;23.370;2022-07-01T00:36:57;4.15;;;3.60;;
36931;SDS011;22847;42.654;23.370;2022-07-01T00:39:22;9.65;;;4.20;;
36931;SDS011;22847;42.654;23.370;2022-07-01T00:41:48;11.25;;;3.67;;
36931;SDS011;22847;42.654;23.370;2022-07-01T00:44:17;6.45;;;3.10;;
36931;SDS011;22847;42.654;23.370;2022-07-01T00:46:45;7.65;;;3.15;;
36931;SDS011;22847;42.654;23.370;2022-07-01T00:49:14;6.28;;;3.80;;
36931;SDS011;22847;42.654;23.370;2022-07-01T00:51:39;8.27;;;4.28;;
36931;SDS011;22847;42.654;23.370;2022-07-01T00:54:05;4.38;;;3.53;;
36931;SDS011;22847;42.654;23.370;2022-07-01T00:56:31;6.35;;;3.58;;
36931;SDS011;22847;42.654;23.370;2022-07-01T00:58:56;7.15;;;3.72;;
36931;SDS011;22847;42.654;23.370;2022-07-01T01:01:22;5.97;;;3.63;;
36931;SDS011;22847;42.654;23.370;2022-07-01T01:03:47;10.45;;;3.90;;
36931;SDS011;22847;42.654;23.370;2022-07-01T01:06:14;7.82;;;3.92;;
36931;SDS011;22847;42.654;23.370;2022-07-01T01:08:40;7.43;;;3.75;;
36931;SDS011;22847;42.654;23.370;2022-07-01T01:11:06;5.43;;;3.40;;
36931;SDS011;22847;42.654;23.370;2022-07-01T01:13:32;5.68;;;3.75;;
36931;SDS011;22847;42.654;23.370;2022-07-01T01:15:57;8.23;;;4.38;;
36931;SDS011;22847;42.654;23.370;2022-07-01T01:18:23;10.55;;;3.67;;
36931;SDS011;22847;42.654;23.370;2022-07-01T01:20:48;5.97;;;4.15;;
36931;SDS011;22847;42.654;23.370;2022-07-01T01:23:14;5.95;;;3.55;;
36931;SDS011;22847;42.654;23.370;2022-07-01T01:25:39;12.25;;;4.45;;
36931;SDS011;22847;42.654;23.370;2022-07-01T01:28:05;11.40;;;4.13;;
36931;SDS011;22847;42.654;23.370;2022-07-01T01:30:30;8.88;;;4.45;;
36931;SDS011;22847;42.654;23.370;2022-07-01T01:32:56;14.00;;;4.50;;
36931;SDS011;22847;42.654;23.370;2022-07-01T01:35:22;7.55;;;3.80;;
36931;SDS011;22847;42.654;23.370;2022-07-01T01:37:48;7.32;;;4.25;;
36931;SDS011;22847;42.654;23.370;2022-07-01T01:40:13;9.23;;;3.67;;
36931;SDS011;22847;42.654;23.370;2022-07-01T01:42:39;5.88;;;4.00;;
36931;SDS011;22847;42.654;23.370;2022-07-01T01:45:06;8.45;;;4.25;;
36931;SDS011;22847;42.654;23.370;2022-07-01T01:47:31;11.90;;;4.22;;
36931;SDS011;22847;42.654;23.370;2022-07-01T01:49:57;10.95;;;4.82;;
36931;SDS011;22847;42.654;23.370;2022-07-01T01:52:22;5.57;;;3.75;;
36931;SDS011;22847;42.654;23.370;2022-07-01T01:54:48;5.45;;;3.30;;
36931;SDS011;22847;42.654;23.370;2022-07-01T01:57:13;6.57;;;4.00;;
36931;SDS011;22847;42.654;23.370;2022-07-01T01:59:39;11.93;;;4.13;;
36931;SDS011;22847;42.654;23.370;2022-07-01T02:02:05;9.00;;;3.92;;
36931;SDS011;22847;42.654;23.370;2022-07-01T02:04:30;8.05;;;4.20;;
36931;SDS011;22847;42.654;23.370;2022-07-01T02:06:56;11.07;;;4.15;;
36931;SDS011;22847;42.654;23.370;2022-07-01T02:09:22;11.20;;;4.60;;
36931;SDS011;22847;42.654;23.370;2022-07-01T02:11:47;9.75;;;4.50;;
36931;SDS011;22847;42.654;23.370;2022-07-01T02:14:13;9.43;;;4.40;;
36931;SDS011;22847;42.654;23.370;2022-07-01T02:16:38;7.47;;;4.50;;
36931;SDS011;22847;42.654;23.370;2022-07-01T02:19:04;9.35;;;4.13;;
36931;SDS011;22847;42.654;23.370;2022-07-01T02:21:29;8.32;;;4.47;;
36931;SDS011;22847;42.654;23.370;2022-07-01T02:23:55;8.60;;;4.10;;
36931;SDS011;22847;42.654;23.370;2022-07-01T02:26:20;8.35;;;4.65;;
36931;SDS011;22847;42.654;23.370;2022-07-01T02:28:46;4.22;;;3.78;;
36931;SDS011;22847;42.654;23.370;2022-07-01T02:31:12;7.53;;;4.38;;
36931;SDS011;22847;42.654;23.370;2022-07-01T02:33:37;12.77;;;3.75;;
36931;SDS011;22847;42.654;23.370;2022-07-01T02:36:02;4.90;;;3.60;;
36931;SDS011;22847;42.654;23.370;2022-07-01T02:38:28;10.82;;;4.03;;
36931;SDS011;22847;42.654;23.370;2022-07-01T02:40:54;9.60;;;4.35;;
36931;SDS011;22847;42.654;23.370;2022-07-01T02:43:19;10.75;;;4.50;;
36931;SDS011;22847;42.654;23.370;2022-07-01T02:45:45;8.55;;;4.80;;
36931;SDS011;22847;42.654;23.370;2022-07-01T02:48:10;13.10;;;4.75;;
36931;SDS011;22847;42.654;23.370;2022-07-01T02:50:36;11.98;;;4.38;;
36931;SDS011;22847;42.654;23.370;2022-07-01T02:53:01;19.35;;;4.97;;
36931;SDS011;22847;42.654;23.370;2022-07-01T02:55:28;9.93;;;5.00;;
36931;SDS011;22847;42.654;23.370;2022-07-01T02:57:56;6.10;;;4.35;;
36931;SDS011;22847;42.654;23.370;2022-07-01T03:00:22;10.68;;;4.55;;
36931;SDS011;22847;42.654;23.370;2022-07-01T03:02:49;9.25;;;5.05;;
36931;SDS011;22847;42.654;23.370;2022-07-01T03:05:14;9.27;;;5.18;;
36931;SDS011;22847;42.654;23.370;2022-07-01T03:07:40;9.55;;;5.10;;
36931;SDS011;22847;42.654;23.370;2022-07-01T03:10:06;16.85;;;6.68;;
36931;SDS011;22847;42.654;23.370;2022-07-01T03:12:33;15.20;;;6.80;;
36931;SDS011;22847;42.654;23.370;2022-07-01T03:15:07;12.05;;;5.70;;
36931;SDS011;22847;42.654;23.370;2022-07-01T03:17:35;11.40;;;5.38;;
36931;SDS011;22847;42.654;23.370;2022-07-01T03:20:02;10.60;;;5.20;;
36931;SDS011;22847;42.654;23.370;2022-07-01T03:22:29;10.98;;;4.65;;
36931;SDS011;22847;42.654;23.370;2022-07-01T03:24:56;7.63;;;5.32;;
36931;SDS011;22847;42.654;23.370;2022-07-01T03:27:22;9.50;;;5.63;;
36931;SDS011;22847;42.654;23.370;2022-07-01T03:29:48;9.73;;;5.78;;
36931;SDS011;22847;42.654;23.370;2022-07-01T03:32:14;12.15;;;6.45;;
36931;SDS011;22847;42.654;23.370;2022-07-01T03:34:41;16.83;;;6.25;;
36931;SDS011;22847;42.654;23.370;2022-07-01T03:37:08;9.98;;;6.82;;
36931;SDS011;22847;42.654;23.370;2022-07-01T03:39:35;13.70;;;8.07;;
36931;SDS011;22847;42.654;23.370;2022-07-01T03:42:05;12.55;;;5.72;;
36931;SDS011;22847;42.654;23.370;2022-07-01T03:44:31;13.18;;;5.32;;
36931;SDS011;22847;42.654;23.370;2022-07-01T03:46:57;11.88;;;5.57;;
36931;SDS011;22847;42.654;23.370;2022-07-01T03:49:23;14.77;;;6.82;;
36931;SDS011;22847;42.654;23.370;2022-07-01T03:51:50;13.93;;;6.75;;
36931;SDS011;22847;42.654;23.370;2022-07-01T03:54:16;13.68;;;6.38;;
36931;SDS011;22847;42.654;23.370;2022-07-01T03:57:15;17.60;;;7.10;;
36931;SDS011;22847;42.654;23.370;2022-07-01T03:59:41;11.93;;;6.18;;
36931;SDS011;22847;42.654;23.370;2022-07-01T04:02:07;13.90;;;6.30;;
36931;SDS011;22847;42.654;23.370;2022-07-01T04:04:33;10.07;;;5.68;;
36931;SDS011;22847;42.654;23.370;2022-07-01T04:07:00;13.63;;;6.10;;
36931;SDS011;22847;42.654;23.370;2022-07-01T04:09:27;10.10;;;5.93;;
36931;SDS011;22847;42.654;23.370;2022-07-01T04:11:53;10.95;;;5.70;;
36931;SDS011;22847;42.654;23.370;2022-07-01T04:14:19;11.82;;;6.28;;
36931;SDS011;22847;42.654;23.370;2022-07-01T04:16:45;9.30;;;5.43;;
36931;SDS011;22847;42.654;23.370;2022-07-01T04:19:12;9.80;;;6.05;;
36931;SDS011;22847;42.654;23.370;2022-07-01T04:21:38;12.52;;;6.53;;
36931;SDS011;22847;42.654;23.370;2022-07-01T04:24:23;13.27;;;6.22;;
36931;SDS011;22847;42.654;23.370;2022-07-01T04:26:49;14.57;;;6.28;;
36931;SDS011;22847;42.654;23.370;2022-07-01T04:29:15;10.35;;;6.40;;
36931;SDS011;22847;42.654;23.370;2022-07-01T04:31:41;13.52;;;6.53;;
36931;SDS011;22847;42.654;23.370;2022-07-01T04:34:07;13.40;;;6.30;;
36931;SDS011;22847;42.654;23.370;2022-07-01T04:36:34;9.80;;;6.35;;
36931;SDS011;22847;42.654;23.370;2022-07-01T04:39:00;18.38;;;7.05;;
36931;SDS011;22847;42.654;23.370;2022-07-01T04:41:26;10.85;;;6.05;;
36931;SDS011;22847;42.654;23.370;2022-07-01T04:46:36;14.98;;;8.07;;
36931;SDS011;22847;42.654;23.370;2022-07-01T04:49:02;17.42;;;8.93;;
36931;SDS011;22847;42.654;23.370;2022-07-01T04:51:27;12.32;;;7.70;;
36931;SDS011;22847;42.654;23.370;2022-07-01T04:53:53;10.57;;;6.35;;
36931;SDS011;22847;42.654;23.370;2022-07-01T04:56:19;23.40;;;5.57;;
36931;SDS011;22847;42.654;23.370;2022-07-01T04:58:44;13.02;;;6.15;;
36931;SDS011;22847;42.654;23.370;2022-07-01T05:01:10;12.00;;;5.88;;
36931;SDS011;22847;42.654;23.370;2022-07-01T05:03:35;13.75;;;5.90;;
36931;SDS011;22847;42.654;23.370;2022-07-01T05:06:01;19.13;;;5.93;;
36931;SDS011;22847;42.654;23.370;2022-07-01T05:08:26;19.25;;;7.80;;
36931;SDS011;22847;42.654;23.370;2022-07-01T05:10:52;18.13;;;8.95;;
36931;SDS011;22847;42.654;23.370;2022-07-01T05:13:17;16.20;;;8.43;;
36931;SDS011;22847;42.654;23.370;2022-07-01T05:15:42;16.42;;;7.45;;
36931;SDS011;22847;42.654;23.370;2022-07-01T05:18:08;23.55;;;5.88;;
36931;SDS011;22847;42.654;23.370;2022-07-01T05:20:52;11.88;;;6.57;;
36931;SDS011;22847;42.654;23.370;2022-07-01T05:23:49;18.65;;;6.65;;
36931;SDS011;22847;42.654;23.370;2022-07-01T05:26:15;19.98;;;6.35;;
36931;SDS011;22847;42.654;23.370;2022-07-01T05:28:43;13.98;;;6.70;;
36931;SDS011;22847;42.654;23.370;2022-07-01T05:31:10;10.65;;;5.93;;
36931;SDS011;22847;42.654;23.370;2022-07-01T05:33:35;9.85;;;5.85;;
36931;SDS011;22847;42.654;23.370;2022-07-01T05:36:01;12.00;;;5.72;;
36931;SDS011;22847;42.654;23.370;2022-07-01T05:38:26;12.05;;;5.80;;
36931;SDS011;22847;42.654;23.370;2022-07-01T05:40:52;10.25;;;6.18;;
36931;SDS011;22847;42.654;23.370;2022-07-01T05:43:18;10.82;;;5.82;;
36931;SDS011;22847;42.654;23.370;2022-07-01T05:45:44;15.13;;;6.75;;
36931;SDS011;22847;42.654;23.370;2022-07-01T05:48:09;14.73;;;6.65;;
36931;SDS011;22847;42.654;23.370;2022-07-01T05:50:35;17.65;;;7.38;;
36931;SDS011;22847;42.654;23.370;2022-07-01T05:53:00;17.55;;;6.68;;
36931;SDS011;22847;42.654;23.370;2022-07-01T05:55:26;16.95;;;6.43;;
36931;SDS011;22847;42.654;23.370;2022-07-01T05:57:51;12.38;;;6.55;;
36931;SDS011;22847;42.654;23.370;2022-07-01T06:00:17;11.50;;;6.75;;
36931;SDS011;22847;42.654;23.370;2022-07-01T06:02:43;16.08;;;6.90;;
36931;SDS011;22847;42.654;23.370;2022-07-01T06:05:08;17.20;;;8.90;;
36931;SDS011;22847;42.654;23.370;2022-07-01T06:07:34;22.73;;;8.98;;
36931;SDS011;22847;42.654;23.370;2022-07-01T06:09:59;18.35;;;7.72;;
36931;SDS011;22847;42.654;23.370;2022-07-01T06:12:25;17.52;;;6.50;;
36931;SDS011;22847;42.654;23.370;2022-07-01T06:14:50;14.90;;;6.85;;
36931;SDS011;22847;42.654;23.370;2022-07-01T06:17:16;14.88;;;7.30;;
36931;SDS011;22847;42.654;23.370;2022-07-01T06:19:42;19.48;;;6.60;;
36931;SDS011;22847;42.654;23.370;2022-07-01T06:22:08;13.23;;;6.47;;
36931;SDS011;22847;42.654;23.370;2022-07-01T06:24:33;14.85;;;6.80;;
36931;SDS011;22847;42.654;23.370;2022-07-01T06:26:59;12.93;;;6.97;;
36931;SDS011;22847;42.654;23.370;2022-07-01T06:29:29;13.02;;;6.45;;
36931;SDS011;22847;42.654;23.370;2022-07-01T06:31:55;12.10;;;5.93;;
36931;SDS011;22847;42.654;23.370;2022-07-01T06:34:21;15.38;;;7.07;;
36931;SDS011;22847;42.654;23.370;2022-07-01T06:36:46;22.40;;;7.57;;
36931;SDS011;22847;42.654;23.370;2022-07-01T06:39:12;16.13;;;7.25;;
36931;SDS011;22847;42.654;23.370;2022-07-01T06:41:37;13.43;;;7.40;;
36931;SDS011;22847;42.654;23.370;2022-07-01T06:44:03;12.30;;;7.57;;
36931;SDS011;22847;42.654;23.370;2022-07-01T06:46:30;13.93;;;7.18;;
36931;SDS011;22847;42.654;23.370;2022-07-01T06:48:56;16.60;;;6.60;;
36931;SDS011;22847;42.654;23.370;2022-07-01T06:51:23;16.02;;;6.65;;
36931;SDS011;22847;42.654;23.370;2022-07-01T06:53:49;10.60;;;6.97;;
36931;SDS011;22847;42.654;23.370;2022-07-01T06:56:15;24.20;;;7.93;;
36931;SDS011;22847;42.654;23.370;2022-07-01T06:58:42;13.07;;;6.40;;
36931;SDS011;22847;42.654;23.370;2022-07-01T07:01:08;20.20;;;6.75;;
36931;SDS011;22847;42.654;23.370;2022-07-01T07:03:33;16.05;;;7.68;;
36931;SDS011;22847;42.654;23.370;2022-07-01T07:05:59;17.77;;;6.53;;
36931;SDS011;22847;42.654;23.370;2022-07-01T07:08:26;12.25;;;7.45;;
36931;SDS011;22847;42.654;23.370;2022-07-01T07:10:52;16.50;;;6.60;;
36931;SDS011;22847;42.654;23.370;2022-07-01T07:13:17;13.38;;;7.22;;
36931;SDS011;22847;42.654;23.370;2022-07-01T07:15:43;19.27;;;7.47;;
36931;SDS011;22847;42.654;23.370;2022-07-01T07:18:08;17.65;;;7.18;;
36931;SDS011;22847;42.654;23.370;2022-07-01T07:20:34;21.45;;;7.82;;
36931;SDS011;22847;42.654;23.370;2022-07-01T07:23:00;21.58;;;7.45;;
36931;SDS011;22847;42.654;23.370;2022-07-01T07:25:25;13.10;;;6.40;;
36931;SDS011;22847;42.654;23.370;2022-07-01T07:27:51;17.50;;;6.43;;
36931;SDS011;22847;42.654;23.370;2022-07-01T07:30:17;22.65;;;6.55;;
36931;SDS011;22847;42.654;23.370;2022-07-01T07:32:43;12.40;;;7.10;;
36931;SDS011;22847;42.654;23.370;2022-07-01T07:35:09;14.32;;;6.72;;
36931;SDS011;22847;42.654;23.370;2022-07-01T07:37:36;14.95;;;6.40;;
36931;SDS011;22847;42.654;23.370;2022-07-01T07:40:02;16.38;;;6.53;;
36931;SDS011;22847;42.654;23.370;2022-07-01T07:42:31;18.40;;;7.43;;
36931;SDS011;22847;42.654;23.370;2022-07-01T07:44:57;15.98;;;6.97;;
36931;SDS011;22847;42.654;23.370;2022-07-01T07:47:22;12.23;;;6.68;;
36931;SDS011;22847;42.654;23.370;2022-07-01T07:49:47;16.90;;;7.53;;
36931;SDS011;22847;42.654;23.370;2022-07-01T07:52:13;18.50;;;7.95;;
36931;SDS011;22847;42.654;23.370;2022-07-01T07:54:38;16.95;;;7.75;;
36931;SDS011;22847;42.654;23.370;2022-07-01T07:57:04;18.00;;;6.68;;
36931;SDS011;22847;42.654;23.370;2022-07-01T07:59:31;21.15;;;7.00;;
36931;SDS011;22847;42.654;23.370;2022-07-01T08:01:57;14.80;;;6.15;;
36931;SDS011;22847;42.654;23.370;2022-07-01T08:04:22;13.20;;;6.30;;
36931;SDS011;22847;42.654;23.370;2022-07-01T08:06:48;12.95;;;6.38;;
36931;SDS011;22847;42.654;23.370;2022-07-01T08:09:13;13.60;;;6.35;;
36931;SDS011;22847;42.654;23.370;2022-07-01T08:11:39;14.52;;;6.50;;
36931;SDS011;22847;42.654;23.370;2022-07-01T08:14:04;30.35;;;8.13;;
36931;SDS011;22847;42.654;23.370;2022-07-01T08:16:30;21.13;;;6.70;;
36931;SDS011;22847;42.654;23.370;2022-07-01T08:18:56;11.38;;;6.35;;
36931;SDS011;22847;42.654;23.370;2022-07-01T08:21:21;20.95;;;6.95;;
36931;SDS011;22847;42.654;23.370;2022-07-01T08:23:47;12.88;;;7.07;;
36931;SDS011;22847;42.654;23.370;2022-07-01T08:26:13;14.57;;;6.82;;
36931;SDS011;22847;42.654;23.370;2022-07-01T08:28:39;15.02;;;6.78;;
36931;SDS011;22847;42.654;23.370;2022-07-01T08:31:05;13.55;;;6.00;;
36931;SDS011;22847;42.654;23.370;2022-07-01T08:33:31;21.45;;;6.45;;
36931;SDS011;22847;42.654;23.370;2022-07-01T08:35:56;17.15;;;6.90;;
36931;SDS011;22847;42.654;23.370;2022-07-01T08:38:22;15.55;;;6.82;;
36931;SDS011;22847;42.654;23.370;2022-07-01T08:40:47;16.90;;;6.55;;
36931;SDS011;22847;42.654;23.370;2022-07-01T08:43:13;20.70;;;6.78;;
36931;SDS011;22847;42.654;23.370;2022-07-01T08:45:38;17.25;;;7.20;;
36931;SDS011;22847;42.654;23.370;2022-07-01T08:48:04;9.77;;;7.00;;
36931;SDS011;22847;42.654;23.370;2022-07-01T08:50:31;16.45;;;6.80;;
36931;SDS011;22847;42.654;23.370;2022-07-01T08:52:59;10.00;;;6.28;;
36931;SDS011;22847;42.654;23.370;2022-07-01T08:55:25;18.55;;;6.45;;
36931;SDS011;22847;42.654;23.370;2022-07-01T08:57:51;12.88;;;7.13;;
36931;SDS011;22847;42.654;23.370;2022-07-01T09:00:17;11.73;;;6.65;;
36931;SDS011;22847;42.654;23.370;2022-07-01T09:05:14;12.32;;;6.75;;
36931;SDS011;22847;42.654;23.370;2022-07-01T09:07:39;15.43;;;6.40;;
36931;SDS011;22847;42.654;23.370;2022-07-01T09:10:14;24.55;;;6.70;;
36931;SDS011;22847;42.654;23.370;2022-07-01T09:12:43;22.80;;;11.07;;
36931;SDS011;22847;42.654;23.370;2022-07-01T09:15:19;10.98;;;6.35;;
36931;SDS011;22847;42.654;23.370;2022-07-01T09:17:45;9.55;;;5.82;;
36931;SDS011;22847;42.654;23.370;2022-07-01T09:20:28;12.07;;;5.80;;
36931;SDS011;22847;42.654;23.370;2022-07-01T09:23:02;8.65;;;5.60;;
36931;SDS011;22847;42.654;23.370;2022-07-01T09:30:48;9.10;;;5.22;;
36931;SDS011;22847;42.654;23.370;2022-07-01T09:33:19;11.55;;;5.43;;
36931;SDS011;22847;42.654;23.370;2022-07-01T09:35:46;8.02;;;4.22;;
36931;SDS011;22847;42.654;23.370;2022-07-01T09:38:17;7.97;;;4.45;;
36931;SDS011;22847;42.654;23.370;2022-07-01T09:40:54;9.90;;;5.50;;
36931;SDS011;22847;42.654;23.370;2022-07-01T09:43:21;10.80;;;4.70;;
36931;SDS011;22847;42.654;23.370;2022-07-01T09:48:25;13.23;;;5.53;;
36931;SDS011;22847;42.654;23.370;2022-07-01T09:51:12;9.68;;;5.60;;
36931;SDS011;22847;42.654;23.370;2022-07-01T09:53:40;12.75;;;5.65;;
36931;SDS011;22847;42.654;23.370;2022-07-01T09:56:06;9.25;;;5.25;;
36931;SDS011;22847;42.654;23.370;2022-07-01T09:58:32;17.45;;;6.32;;
36931;SDS011;22847;42.654;23.370;2022-07-01T10:00:57;14.82;;;6.13;;
36931;SDS011;22847;42.654;23.370;2022-07-01T10:03:23;19.08;;;5.78;;
36931;SDS011;22847;42.654;23.370;2022-07-01T10:14:23;11.05;;;4.50;;
36931;SDS011;22847;42.654;23.370;2022-07-01T10:16:50;9.00;;;5.05;;
36931;SDS011;22847;42.654;23.370;2022-07-01T10:19:28;12.27;;;5.10;;
36931;SDS011;22847;42.654;23.370;2022-07-01T10:21:56;10.65;;;4.93;;
36931;SDS011;22847;42.654;23.370;2022-07-01T10:24:26;9.80;;;4.38;;
36931;SDS011;22847;42.654;23.370;2022-07-01T10:26:53;12.07;;;4.72;;
36931;SDS011;22847;42.654;23.370;2022-07-01T10:29:35;11.80;;;4.47;;
36931;SDS011;22847;42.654;23.370;2022-07-01T10:34:50;11.32;;;5.03;;
36931;SDS011;22847;42.654;23.370;2022-07-01T10:37:27;11.55;;;5.15;;
36931;SDS011;22847;42.654;23.370;2022-07-01T10:42:28;6.10;;;3.83;;
36931;SDS011;22847;42.654;23.370;2022-07-01T10:45:20;7.50;;;4.00;;
36931;SDS011;22847;42.654;23.370;2022-07-01T10:47:45;9.85;;;4.07;;
36931;SDS011;22847;42.654;23.370;2022-07-01T10:50:12;8.80;;;4.20;;
36931;SDS011;22847;42.654;23.370;2022-07-01T10:53:02;9.63;;;4.57;;
36931;SDS011;22847;42.654;23.370;2022-07-01T10:55:38;18.48;;;4.57;;
36931;SDS011;22847;42.654;23.370;2022-07-01T10:58:06;9.98;;;5.50;;
36931;SDS011;22847;42.654;23.370;2022-07-01T11:00:33;15.85;;;5.32;;
36931;SDS011;22847;42.654;23.370;2022-07-01T11:03:13;9.43;;;5.18;;
36931;SDS011;22847;42.654;23.370;2022-07-01T11:05:41;12.57;;;5.18;;
36931;SDS011;22847;42.654;23.370;2022-07-01T11:08:07;7.28;;;5.30;;
36931;SDS011;22847;42.654;23.370;2022-07-01T11:10:34;13.40;;;4.63;;
36931;SDS011;22847;42.654;23.370;2022-07-01T11:13:00;5.63;;;4.25;;
36931;SDS011;22847;42.654;23.370;2022-07-01T11:15:29;8.45;;;4.07;;
36931;SDS011;22847;42.654;23.370;2022-07-01T11:17:55;7.60;;;4.18;;
36931;SDS011;22847;42.654;23.370;2022-07-01T11:20:22;20.92;;;6.53;;
36931;SDS011;22847;42.654;23.370;2022-07-01T11:22:49;8.05;;;4.20;;
36931;SDS011;22847;42.654;23.370;2022-07-01T11:25:16;8.27;;;4.28;;
36931;SDS011;22847;42.654;23.370;2022-07-01T11:27:45;5.95;;;4.03;;
36931;SDS011;22847;42.654;23.370;2022-07-01T11:30:11;12.60;;;5.03;;
36931;SDS011;22847;42.654;23.370;2022-07-01T11:32:39;7.35;;;4.00;;
36931;SDS011;22847;42.654;23.370;2022-07-01T11:35:07;7.07;;;4.07;;
36931;SDS011;22847;42.654;23.370;2022-07-01T11:38:06;6.97;;;4.13;;
36931;SDS011;22847;42.654;23.370;2022-07-01T11:41:01;6.72;;;4.20;;
36931;SDS011;22847;42.654;23.370;2022-07-01T11:43:32;12.00;;;5.00;;
36931;SDS011;22847;42.654;23.370;2022-07-01T11:46:00;4.35;;;3.83;;
36931;SDS011;22847;42.654;23.370;2022-07-01T11:48:37;8.02;;;3.97;;
36931;SDS011;22847;42.654;23.370;2022-07-01T11:51:11;7.82;;;4.25;;
36931;SDS011;22847;42.654;23.370;2022-07-01T11:53:39;8.40;;;4.03;;
36931;SDS011;22847;42.654;23.370;2022-07-01T11:56:06;8.85;;;3.60;;
36931;SDS011;22847;42.654;23.370;2022-07-01T11:58:49;9.00;;;3.95;;
36931;SDS011;22847;42.654;23.370;2022-07-01T12:01:23;6.20;;;3.70;;
36931;SDS011;22847;42.654;23.370;2022-07-01T12:03:49;4.63;;;4.22;;
36931;SDS011;22847;42.654;23.370;2022-07-01T12:06:16;10.55;;;5.07;;
36931;SDS011;22847;42.654;23.370;2022-07-01T12:08:44;5.85;;;3.75;;
36931;SDS011;22847;42.654;23.370;2022-07-01T12:11:10;8.07;;;4.10;;
36931;SDS011;22847;42.654;23.370;2022-07-01T12:13:36;8.30;;;4.30;;
36931;SDS011;22847;42.654;23.370;2022-07-01T12:16:09;13.70;;;3.90;;
36931;SDS011;22847;42.654;23.370;2022-07-01T12:18:35;8.25;;;4.60;;
36931;SDS011;22847;42.654;23.370;2022-07-01T12:21:01;11.32;;;5.05;;
36931;SDS011;22847;42.654;23.370;2022-07-01T12:23:27;6.57;;;4.28;;
36931;SDS011;22847;42.654;23.370;2022-07-01T12:25:52;7.65;;;4.70;;
36931;SDS011;22847;42.654;23.370;2022-07-01T12:28:33;6.72;;;3.42;;
36931;SDS011;22847;42.654;23.370;2022-07-01T12:31:07;4.10;;;3.67;;
36931;SDS011;22847;42.654;23.370;2022-07-01T12:33:34;5.38;;;4.00;;
36931;SDS011;22847;42.654;23.370;2022-07-01T12:36:04;7.22;;;5.63;;
36931;SDS011;22847;42.654;23.370;2022-07-01T12:38:32;4.93;;;4.10;;
36931;SDS011;22847;42.654;23.370;2022-07-01T12:40:58;9.18;;;5.20;;
36931;SDS011;22847;42.654;23.370;2022-07-01T12:43:24;4.60;;;3.30;;
36931;SDS011;22847;42.654;23.370;2022-07-01T12:46:02;3.72;;;3.35;;
36931;SDS011;22847;42.654;23.370;2022-07-01T12:48:28;6.75;;;3.90;;
36931;SDS011;22847;42.654;23.370;2022-07-01T12:50:55;8.07;;;4.20;;
36931;SDS011;22847;42.654;23.370;2022-07-01T12:53:22;11.07;;;4.53;;
36931;SDS011;22847;42.654;23.370;2022-07-01T12:55:49;14.98;;;5.38;;
36931;SDS011;22847;42.654;23.370;2022-07-01T12:58:21;10.95;;;4.85;;
36931;SDS011;22847;42.654;23.370;2022-07-01T13:00:53;12.40;;;5.45;;
36931;SDS011;22847;42.654;23.370;2022-07-01T13:03:21;14.88;;;5.32;;
36931;SDS011;22847;42.654;23.370;2022-07-01T13:05:48;15.85;;;5.25;;
36931;SDS011;22847;42.654;23.370;2022-07-01T13:08:14;17.67;;;5.38;;
36931;SDS011;22847;42.654;23.370;2022-07-01T13:10:40;7.03;;;5.00;;
36931;SDS011;22847;42.654;23.370;2022-07-01T13:13:06;9.45;;;4.85;;
36931;SDS011;22847;42.654;23.370;2022-07-01T13:15:32;15.65;;;5.43;;
36931;SDS011;22847;42.654;23.370;2022-07-01T13:17:59;5.50;;;4.55;;
36931;SDS011;22847;42.654;23.370;2022-07-01T13:20:25;9.98;;;4.43;;
36931;SDS011;22847;42.654;23.370;2022-07-01T13:22:50;9.90;;;4.88;;
36931;SDS011;22847;42.654;23.370;2022-07-01T13:25:16;4.32;;;3.92;;
36931;SDS011;22847;42.654;23.370;2022-07-01T13:27:41;12.10;;;4.78;;
36931;SDS011;22847;42.654;23.370;2022-07-01T13:30:08;9.95;;;4.70;;
36931;SDS011;22847;42.654;23.370;2022-07-01T13:32:35;9.02;;;4.60;;
36931;SDS011;22847;42.654;23.370;2022-07-01T13:35:01;9.65;;;5.15;;
36931;SDS011;22847;42.654;23.370;2022-07-01T13:37:30;17.23;;;5.35;;
36931;SDS011;22847;42.654;23.370;2022-07-01T13:39:55;24.02;;;6.32;;
36931;SDS011;22847;42.654;23.370;2022-07-01T13:42:22;12.70;;;5.88;;
36931;SDS011;22847;42.654;23.370;2022-07-01T13:44:47;9.07;;;5.22;;
36931;SDS011;22847;42.654;23.370;2022-07-01T13:47:13;9.40;;;4.90;;
36931;SDS011;22847;42.654;23.370;2022-07-01T13:49:39;6.97;;;4.60;;
36931;SDS011;22847;42.654;23.370;2022-07-01T13:52:07;9.63;;;5.43;;
36931;SDS011;22847;42.654;23.370;2022-07-01T13:54:33;7.97;;;4.70;;
36931;SDS011;22847;42.654;23.370;2022-07-01T13:56:59;18.02;;;6.22;;
36931;SDS011;22847;42.654;23.370;2022-07-01T13:59:24;10.00;;;4.80;;
36931;SDS011;22847;42.654;23.370;2022-07-01T14:01:50;11.45;;;5.38;;
36931;SDS011;22847;42.654;23.370;2022-07-01T14:04:15;10.63;;;4.85;;
36931;SDS011;22847;42.654;23.370;2022-07-01T14:06:41;14.05;;;5.30;;
36931;SDS011;22847;42.654;23.370;2022-07-01T14:09:06;9.93;;;5.13;;
36931;SDS011;22847;42.654;23.370;2022-07-01T14:11:31;11.70;;;6.03;;
36931;SDS011;22847;42.654;23.370;2022-07-01T14:13:57;13.40;;;5.60;;
36931;SDS011;22847;42.654;23.370;2022-07-01T14:16:22;11.15;;;5.10;;
36931;SDS011;22847;42.654;23.370;2022-07-01T14:18:48;12.93;;;5.97;;
36931;SDS011;22847;42.654;23.370;2022-07-01T14:21:16;7.95;;;4.82;;
36931;SDS011;22847;42.654;23.370;2022-07-01T14:23:43;12.35;;;6.05;;
36931;SDS011;22847;42.654;23.370;2022-07-01T14:26:09;10.05;;;5.85;;
36931;SDS011;22847;42.654;23.370;2022-07-01T14:28:34;11.30;;;5.47;;
36931;SDS011;22847;42.654;23.370;2022-07-01T14:31:00;15.85;;;5.45;;
36931;SDS011;22847;42.654;23.370;2022-07-01T14:33:26;7.05;;;5.53;;
36931;SDS011;22847;42.654;23.370;2022-07-01T14:35:51;9.75;;;6.22;;
36931;SDS011;22847;42.654;23.370;2022-07-01T14:38:17;33.28;;;8.82;;
36931;SDS011;22847;42.654;23.370;2022-07-01T14:40:42;6.68;;;5.45;;
36931;SDS011;22847;42.654;23.370;2022-07-01T14:43:08;7.07;;;5.70;;
36931;SDS011;22847;42.654;23.370;2022-07-01T14:45:34;7.07;;;4.72;;
36931;SDS011;22847;42.654;23.370;2022-07-01T14:48:00;6.55;;;5.38;;
36931;SDS011;22847;42.654;23.370;2022-07-01T14:50:26;6.78;;;5.50;;
36931;SDS011;22847;42.654;23.370;2022-07-01T14:52:51;6.72;;;4.60;;